Time,TemperatureF,DewpointF,PressureIn,WindDirection,WindDirectionDegrees,WindSpeedMPH,WindSpeedGustMPH,Humidity,HourlyPrecipIn,Conditions,Clouds,dailyrainin,SoftwareType,DateUTC
2013-08-10 00:01:00,57.0,53.0,29.57,NE,37,0.0,1.0,86,0.00,,,0.00,,2013-08-10 08:01:00,
2013-08-10 00:21:00,56.0,52.0,29.57,NE,38,0.0,0.0,87,0.00,,,0.00,,2013-08-10 08:21:00,
2013-08-10 00:32:00,56.0,53.0,29.58,NE,37,0.0,0.0,89,0.00,,,0.00,,2013-08-10 08:32:00,
2013-08-10 00:43:00,55.0,52.0,29.58,NE,38,0.0,0.0,89,0.00,,,0.00,,2013-08-10 08:43:00,
2013-08-10 00:52:00,55.0,52.0,29.58,NE,38,0.0,0.0,89,0.00,,,0.00,,2013-08-10 08:52:00,
2013-08-10 01:02:00,55.0,52.0,29.58,NE,38,0.0,0.0,89,0.00,,,0.00,,2013-08-10 09:02:00,
2013-08-10 01:12:00,55.0,52.0,29.58,NE,38,0.0,0.0,89,0.00,,,0.00,,2013-08-10 09:12:00,
2013-08-10 01:21:00,55.0,51.0,29.59,NE,37,0.0,0.0,87,0.00,,,0.00,,2013-08-10 09:21:00,
2013-08-10 01:32:00,55.0,52.0,29.60,NE,38,0.0,0.0,88,0.00,,,0.00,,2013-08-10 09:32:00,
2013-08-10 01:52:00,55.0,51.0,29.60,NE,37,0.0,0.0,87,0.00,,,0.00,,2013-08-10 09:52:00,
2013-08-10 02:01:00,55.0,51.0,29.61,NE,38,0.0,0.0,86,0.00,,,0.00,,2013-08-10 10:01:00,
2013-08-10 02:21:00,55.0,52.0,29.61,NE,38,0.0,0.0,88,0.00,,,0.00,,2013-08-10 10:21:00,
2013-08-10 02:33:00,54.0,50.0,29.62,NE,37,0.0,0.0,87,0.00,,,0.00,,2013-08-10 10:33:00,
2013-08-10 02:52:00,54.0,51.0,29.62,NE,38,0.0,0.0,88,0.00,,,0.00,,2013-08-10 10:52:00,
2013-08-10 03:02:00,54.0,51.0,29.63,NE,37,0.0,0.0,88,0.00,,,0.00,,2013-08-10 11:02:00,
2013-08-10 03:21:00,54.0,51.0,29.63,NE,38,0.0,0.0,90,0.00,,,0.00,,2013-08-10 11:21:00,
2013-08-10 03:33:00,53.0,50.0,29.63,NE,38,0.0,1.0,91,0.00,,,0.00,,2013-08-10 11:33:00,
2013-08-10 03:43:00,53.0,50.0,29.63,NE,38,0.0,1.0,91,0.00,,,0.00,,2013-08-10 11:43:00,
2013-08-10 03:52:00,53.0,50.0,29.63,NE,37,0.0,0.0,90,0.00,,,0.00,,2013-08-10 11:52:00,
2013-08-10 04:01:00,53.0,50.0,29.64,NE,38,0.0,0.0,89,0.00,,,0.00,,2013-08-10 12:01:00,
2013-08-10 04:11:00,53.0,50.0,29.64,NE,38,0.0,0.0,89,0.00,,,0.00,,2013-08-10 12:11:00,
2013-08-10 04:21:00,53.0,50.0,29.64,NE,37,0.0,0.0,90,0.00,,,0.00,,2013-08-10 12:21:00,
2013-08-10 04:32:00,52.0,49.0,29.64,NE,38,0.0,0.0,90,0.00,,,0.00,,2013-08-10 12:32:00,
2013-08-10 04:52:00,52.0,49.0,29.65,NE,38,0.0,0.0,90,0.00,,,0.00,,2013-08-10 12:52:00,
2013-08-10 05:01:00,52.0,49.0,29.65,NE,38,0.0,0.0,90,0.00,,,0.00,,2013-08-10 13:01:00,
2013-08-10 05:11:00,51.0,49.0,29.65,NE,37,0.0,0.0,92,0.00,,,0.00,,2013-08-10 13:11:00,
2013-08-10 05:21:00,51.0,49.0,29.65,NE,38,0.0,0.0,92,0.00,,,0.00,,2013-08-10 13:21:00,
2013-08-10 05:43:00,51.0,49.0,29.66,NE,38,0.0,1.0,93,0.00,,,0.00,,2013-08-10 13:43:00,
2013-08-10 05:52:00,51.0,49.0,29.66,NE,38,0.0,1.0,93,0.00,,,0.00,,2013-08-10 13:52:00,
2013-08-10 06:02:00,51.0,49.0,29.66,NE,38,0.0,0.0,92,0.00,,,0.00,,2013-08-10 14:02:00,
2013-08-10 06:12:00,51.0,49.0,29.66,NE,38,0.0,0.0,92,0.00,,,0.00,,2013-08-10 14:12:00,
2013-08-10 06:22:00,51.0,49.0,29.66,NE,38,0.0,1.0,92,0.00,,,0.00,,2013-08-10 14:22:00,
2013-08-10 06:32:00,51.0,49.0,29.66,NE,38,0.0,0.0,92,0.00,,,0.00,,2013-08-10 14:32:00,
2013-08-10 06:53:00,50.0,48.0,29.66,NE,38,0.0,0.0,92,0.00,,,0.00,,2013-08-10 14:53:00,
2013-08-10 07:02:00,50.0,48.0,29.66,NE,38,0.0,0.0,92,0.00,,,0.00,,2013-08-10 15:02:00,
2013-08-10 07:22:00,50.0,48.0,29.66,NE,37,0.0,1.0,92,0.00,,,0.00,,2013-08-10 15:22:00,
2013-08-10 07:33:00,50.0,48.0,29.66,NE,38,0.0,1.0,92,0.00,,,0.00,,2013-08-10 15:33:00,
2013-08-10 07:43:00,50.0,48.0,29.66,NE,38,0.0,1.0,92,0.00,,,0.00,,2013-08-10 15:43:00,
2013-08-10 07:52:00,50.0,48.0,29.66,NE,38,0.0,1.0,92,0.00,,,0.00,,2013-08-10 15:52:00,
2013-08-10 08:01:00,50.0,47.0,29.67,NE,38,0.0,0.0,91,0.00,,,0.00,,2013-08-10 16:01:00,
2013-08-10 08:22:00,51.0,48.0,29.67,NE,38,0.0,1.0,91,0.00,,,0.00,,2013-08-10 16:22:00,
2013-08-10 08:43:00,52.0,49.0,29.67,NE,38,0.0,0.0,90,0.00,,,0.00,,2013-08-10 16:43:00,
2013-08-10 08:53:00,52.0,49.0,29.67,NE,38,0.0,0.0,90,0.00,,,0.00,,2013-08-10 16:53:00,
2013-08-10 09:02:00,52.0,49.0,29.67,NE,37,0.0,0.0,89,0.00,,,0.00,,2013-08-10 17:02:00,
2013-08-10 09:21:00,53.0,50.0,29.67,NE,37,0.0,0.0,89,0.00,,,0.00,,2013-08-10 17:21:00,
2013-08-10 09:33:00,53.0,50.0,29.67,NE,38,0.0,1.0,88,0.00,,,0.00,,2013-08-10 17:33:00,
2013-08-10 09:43:00,54.0,50.0,29.67,NE,37,0.0,1.0,87,0.00,,,0.00,,2013-08-10 17:43:00,
2013-08-10 09:52:00,54.0,50.0,29.67,NE,37,0.0,1.0,87,0.00,,,0.00,,2013-08-10 17:52:00,
2013-08-10 10:01:00,54.0,50.0,29.67,NE,38,0.0,1.0,86,0.00,,,0.00,,2013-08-10 18:01:00,
2013-08-10 10:11:00,54.0,50.0,29.67,NE,38,0.0,1.0,86,0.00,,,0.00,,2013-08-10 18:11:00,
2013-08-10 10:23:00,55.0,51.0,29.67,NE,38,0.0,0.0,87,0.00,,,0.00,,2013-08-10 18:23:00,
2013-08-10 10:32:00,55.0,51.0,29.67,NE,38,0.0,0.0,87,0.00,,,0.00,,2013-08-10 18:32:00,
2013-08-10 10:43:00,56.0,52.0,29.67,NE,37,0.0,0.0,87,0.00,,,0.00,,2013-08-10 18:43:00,
2013-08-10 10:52:00,56.0,52.0,29.67,NE,37,0.0,0.0,87,0.00,,,0.00,,2013-08-10 18:52:00,
2013-08-10 11:01:00,57.0,53.0,29.67,NE,38,0.0,0.0,85,0.00,,,0.00,,2013-08-10 19:01:00,
2013-08-10 11:11:00,57.0,53.0,29.67,NE,38,0.0,0.0,85,0.00,,,0.00,,2013-08-10 19:11:00,
2013-08-10 11:21:00,58.0,53.0,29.67,NE,38,0.0,1.0,83,0.00,,,0.00,,2013-08-10 19:21:00,
2013-08-10 11:32:00,58.0,53.0,29.67,NE,38,0.0,1.0,83,0.00,,,0.00,,2013-08-10 19:32:00,
2013-08-10 11:44:00,61.0,52.0,29.66,NE,38,0.0,1.0,71,0.00,,,0.00,,2013-08-10 19:44:00,
2013-08-10 11:53:00,61.0,52.0,29.66,NE,38,0.0,1.0,71,0.00,,,0.00,,2013-08-10 19:53:00,
2013-08-10 12:22:00,64.0,53.0,29.66,West,269,0.0,1.0,68,0.00,,,0.00,,2013-08-10 20:22:00,
2013-08-10 12:33:00,64.0,52.0,29.66,West,275,0.0,2.0,65,0.00,,,0.00,,2013-08-10 20:33:00,
2013-08-10 12:43:00,65.0,53.0,29.66,West,275,0.0,1.0,65,0.00,,,0.00,,2013-08-10 20:43:00,
2013-08-10 12:53:00,65.0,53.0,29.66,West,275,0.0,1.0,65,0.00,,,0.00,,2013-08-10 20:53:00,
2013-08-10 13:02:00,65.0,51.0,29.67,West,275,0.0,1.0,61,0.00,,,0.00,,2013-08-10 21:02:00,
2013-08-10 13:11:00,65.0,51.0,29.67,West,275,0.0,1.0,61,0.00,,,0.00,,2013-08-10 21:11:00,
2013-08-10 13:22:00,65.0,51.0,29.67,West,275,0.0,1.0,60,0.00,,,0.00,,2013-08-10 21:22:00,
2013-08-10 13:32:00,66.0,50.0,29.67,West,276,0.0,1.0,56,0.00,,,0.00,,2013-08-10 21:32:00,
2013-08-10 13:42:00,66.0,52.0,29.67,West,276,0.0,1.0,60,0.00,,,0.00,,2013-08-10 21:42:00,
2013-08-10 13:52:00,66.0,52.0,29.67,West,276,0.0,1.0,60,0.00,,,0.00,,2013-08-10 21:52:00,
2013-08-10 14:01:00,66.0,49.0,29.67,ENE,76,1.0,5.0,55,0.00,,,0.00,,2013-08-10 22:01:00,
2013-08-10 14:21:00,65.0,49.0,29.68,ENE,57,0.0,2.0,56,0.00,,,0.00,,2013-08-10 22:21:00,
2013-08-10 14:52:00,64.0,54.0,29.68,ENE,57,0.0,0.0,71,0.00,,,0.00,,2013-08-10 22:52:00,
2013-08-10 15:01:00,64.0,54.0,29.68,ENE,57,0.0,0.0,71,0.00,,,0.00,,2013-08-10 23:01:00,
2013-08-10 15:22:00,62.0,53.0,29.70,ENE,57,0.0,0.0,73,0.00,,,0.00,,2013-08-10 23:22:00,
2013-08-10 15:32:00,62.0,51.0,29.71,ENE,57,0.0,1.0,67,0.00,,,0.00,,2013-08-10 23:32:00,
2013-08-10 15:53:00,63.0,51.0,29.71,SW,234,0.0,5.0,64,0.00,,,0.00,,2013-08-10 23:53:00,
2013-08-10 16:01:00,63.0,52.0,29.70,WNW,300,0.0,2.0,67,0.00,,,0.00,,2013-08-11 00:01:00,
2013-08-10 16:22:00,63.0,53.0,29.71,NE,36,0.0,2.0,69,0.00,,,0.00,,2013-08-11 00:22:00,
2013-08-10 16:32:00,64.0,52.0,29.71,North,355,0.0,2.0,65,0.00,,,0.00,,2013-08-11 00:32:00,
2013-08-10 16:42:00,64.0,52.0,29.71,North,355,0.0,2.0,65,0.00,,,0.00,,2013-08-11 00:42:00,
2013-08-10 16:52:00,64.0,51.0,29.71,NNW,338,0.0,2.0,62,0.00,,,0.00,,2013-08-11 00:52:00,
2013-08-10 17:01:00,64.0,51.0,29.72,NNW,338,0.0,2.0,63,0.00,,,0.00,,2013-08-11 01:01:00,
2013-08-10 17:11:00,65.0,52.0,29.72,North,350,0.0,2.0,62,0.00,,,0.00,,2013-08-11 01:11:00,
2013-08-10 17:22:00,65.0,52.0,29.72,North,350,0.0,2.0,62,0.00,,,0.00,,2013-08-11 01:22:00,
2013-08-10 17:32:00,65.0,48.0,29.72,East,90,1.0,8.0,55,0.00,,,0.00,,2013-08-11 01:32:00,
2013-08-10 17:42:00,65.0,48.0,29.72,East,80,0.0,3.0,55,0.00,,,0.00,,2013-08-11 01:42:00,
2013-08-10 17:53:00,65.0,48.0,29.72,East,80,0.0,3.0,55,0.00,,,0.00,,2013-08-11 01:53:00,
2013-08-10 18:02:00,65.0,48.0,29.72,East,80,0.0,3.0,55,0.00,,,0.00,,2013-08-11 02:02:00,
2013-08-10 18:11:00,65.0,48.0,29.72,East,80,0.0,3.0,55,0.00,,,0.00,,2013-08-11 02:11:00,
2013-08-10 18:21:00,65.0,48.0,29.72,East,101,0.0,3.0,54,0.00,,,0.00,,2013-08-11 02:21:00,
2013-08-10 18:32:00,66.0,48.0,29.73,ENE,63,0.0,4.0,53,0.00,,,0.00,,2013-08-11 02:32:00,
2013-08-10 18:43:00,65.0,47.0,29.73,East,100,0.0,4.0,52,0.00,,,0.00,,2013-08-11 02:43:00,
2013-08-10 18:57:00,65.0,47.0,29.73,East,100,0.0,4.0,52,0.00,,,0.00,,2013-08-11 02:57:00,
2013-08-10 19:11:00,65.0,48.0,29.74,East,99,0.0,1.0,54,0.00,,,0.00,,2013-08-11 03:11:00,
2013-08-10 19:22:00,65.0,49.0,29.74,North,5,0.0,1.0,57,0.00,,,0.00,,2013-08-11 03:22:00,
2013-08-10 19:33:00,66.0,49.0,29.75,WNW,290,0.0,2.0,55,0.00,,,0.00,,2013-08-11 03:33:00,
2013-08-10 19:54:00,66.0,50.0,29.76,ENE,78,0.0,2.0,56,0.00,,,0.00,,2013-08-11 03:54:00,
2013-08-10 20:01:00,66.0,50.0,29.76,ENE,78,0.0,2.0,56,0.00,,,0.00,,2013-08-11 04:01:00,
2013-08-10 20:11:00,65.0,48.0,29.76,WNW,296,0.0,2.0,54,0.00,,,0.00,,2013-08-11 04:11:00,
2013-08-10 20:22:00,64.0,49.0,29.77,WNW,294,0.0,1.0,58,0.00,,,0.00,,2013-08-11 04:22:00,
2013-08-10 20:32:00,64.0,49.0,29.77,WNW,294,0.0,1.0,58,0.00,,,0.00,,2013-08-11 04:32:00,
2013-08-10 20:42:00,63.0,47.0,29.78,WNW,294,0.0,2.0,56,0.00,,,0.00,,2013-08-11 04:42:00,
2013-08-10 20:53:00,62.0,47.0,29.78,WNW,294,0.0,0.0,58,0.00,,,0.00,,2013-08-11 04:53:00,
2013-08-10 21:02:00,62.0,47.0,29.78,WNW,294,0.0,1.0,59,0.00,,,0.00,,2013-08-11 05:02:00,
2013-08-10 21:12:00,62.0,47.0,29.78,WNW,294,0.0,1.0,59,0.00,,,0.00,,2013-08-11 05:12:00,
2013-08-10 21:22:00,61.0,47.0,29.79,WNW,294,0.0,0.0,61,0.00,,,0.00,,2013-08-11 05:22:00,
2013-08-10 21:44:00,60.0,47.0,29.80,WNW,294,0.0,0.0,62,0.00,,,0.00,,2013-08-11 05:44:00,
2013-08-10 21:54:00,60.0,47.0,29.81,WNW,294,0.0,0.0,63,0.00,,,0.00,,2013-08-11 05:54:00,
2013-08-10 22:33:00,60.0,48.0,29.82,WNW,294,0.0,0.0,65,0.00,,,0.00,,2013-08-11 06:33:00,
2013-08-10 22:44:00,59.0,48.0,29.83,WNW,294,0.0,0.0,67,0.00,,,0.00,,2013-08-11 06:44:00,
2013-08-10 22:55:00,58.0,48.0,29.83,WNW,294,0.0,0.0,70,0.00,,,0.00,,2013-08-11 06:55:00,
2013-08-10 23:02:00,56.0,48.0,29.84,WNW,294,0.0,1.0,74,0.00,,,0.00,,2013-08-11 07:02:00,
2013-08-10 23:13:00,56.0,48.0,29.84,WNW,294,0.0,1.0,74,0.00,,,0.00,,2013-08-11 07:13:00,
2013-08-10 23:22:00,55.0,48.0,29.84,WNW,294,0.0,0.0,76,0.00,,,0.00,,2013-08-11 07:22:00,
2013-08-10 23:33:00,54.0,48.0,29.85,WNW,294,0.0,1.0,79,0.00,,,0.00,,2013-08-11 07:33:00,
2013-08-10 23:44:00,54.0,48.0,29.85,WNW,294,0.0,1.0,79,0.00,,,0.00,,2013-08-11 07:44:00,